Encofrador — EASS — position and weather

sailwx.info

Track history (hours):
 
Tides and Currents Weather Stations Pressure Air Temp Water Temp Dewpoint Dewpoint Depression Visibility Wind Speed Wind Dir Waves Ship Positions

Encofrador

Last reported at 2017-Nov-19 12:32 UTC. Time now 2017-Nov-19 13:53 UTC.
Position N 43°42' W 005°60'.

Length 107 m; draft 6.9 m.

Type: Cargo ship. MMSI: 224655000.

Date/timePositionNaut miles runAvg speedWind from/ knotsBaromVisibWave heightAir tempDewpointWater temp
2017-Nov-19 12:32N 43°42' W 005°60'512.4
2017-Nov-19 12:06N 43°42' W 005°52'212.3
2017-Nov-19 11:55N 43°42' W 005°49'512.5
2017-Nov-19 11:30N 43°38' W 005°44'5 9.8
2017-Nov-19 11:00N 43°34' W 005°41'1 1.0
2017-Nov-19 10:24N 43°34' W 005°42'0 0.0
2017-Nov-19 09:40N 43°34' W 005°42'0 0.0
2017-Nov-19 09:28N 43°34' W 005°42'0 0.0
2017-Nov-19 08:52N 43°34' W 005°42'0 0.0
2017-Nov-19 05:35N 43°34' W 005°42'0 0.0
2017-Nov-19 05:23N 43°34' W 005°42'0 0.0
2017-Nov-18 23:25N 43°34' W 005°42'0 0.0
2017-Nov-18 21:55N 43°34' W 005°42'0 0.0
2017-Nov-18 16:55N 43°34' W 005°42'1 2.8
2017-Nov-18 16:30N 43°34' W 005°40'612.0
2017-Nov-18 16:00N 43°39' W 005°45'612.7
2017-Nov-18 15:30N 43°42' W 005°53'713.5
2017-Nov-18 14:58N 43°42' W 006°03'5013.4
2017-Nov-18 11:11N 43°47' W 007°13'313.1
2017-Nov-18 11:00N 43°47' W 007°16'713.4
2017-Nov-18 10:30N 43°47' W 007°25'713.2
2017-Nov-18 10:00N 43°48' W 007°34'1013.0
2017-Nov-18 09:16N 43°48' W 007°48'313.2
2017-Nov-18 09:00N 43°48' W 007°52'  
2017-Nov-15 17:58N 43°49' W 007°53'812.8
2017-Nov-15 17:20N 43°49' W 007°42'413.1
2017-Nov-15 17:00N 43°49' W 007°36'612.7
2017-Nov-15 16:30N 43°48' W 007°27'6212.8
2017-Nov-15 11:42N 43°42' W 006°02'713.7
2017-Nov-15 11:11N 43°42' W 005°52'313.0
2017-Nov-15 10:56N 43°41' W 005°48'612.9
2017-Nov-15 10:30N 43°38' W 005°42'4 7.3
2017-Nov-15 10:00N 43°34' W 005°42'0 0.2
2017-Nov-15 09:04N 43°34' W 005°42'0 0.0
2017-Nov-15 08:58N 43°34' W 005°42'0 0.0
2017-Nov-15 08:10N 43°34' W 005°42'0 0.0
2017-Nov-15 07:08N 43°34' W 005°42'0 0.0
2017-Nov-15 06:39N 43°34' W 005°42'0 0.0
2017-Nov-15 06:23N 43°34' W 005°42'0 0.0
2017-Nov-15 05:53N 43°34' W 005°42'0 0.0
2017-Nov-15 05:23N 43°34' W 005°42'0 0.0
2017-Nov-15 04:47N 43°34' W 005°42'0 0.0
2017-Nov-15 04:29N 43°34' W 005°42'0 0.0
2017-Nov-15 03:55N 43°34' W 005°42'0 0.0
2017-Nov-15 03:25N 43°34' W 005°42'0 0.0
2017-Nov-15 02:55N 43°34' W 005°42'0 0.0
2017-Nov-15 02:25N 43°34' W 005°42'0 0.0
2017-Nov-15 01:55N 43°34' W 005°42'0 0.0
2017-Nov-15 01:25N 43°34' W 005°42'0 0.0
2017-Nov-14 18:26N 43°34' W 005°42'0 0.0
2017-Nov-14 17:50N 43°34' W 005°42'0 0.0
2017-Nov-14 17:20N 43°34' W 005°42'0 0.0
2017-Nov-14 16:55N 43°34' W 005°42'0 0.0
2017-Nov-14 16:25N 43°34' W 005°42'0 0.0
2017-Nov-14 15:43N 43°34' W 005°42'0 0.0
2017-Nov-14 14:23N 43°34' W 005°42'0 0.0
2017-Nov-14 13:59N 43°34' W 005°42'0 0.0
2017-Nov-14 13:27N 43°34' W 005°42'0 0.0
2017-Nov-14 12:51N 43°34' W 005°42'0 0.0
2017-Nov-14 12:27N 43°34' W 005°42'0 0.0
2017-Nov-14 11:39N 43°34' W 005°42'0 0.3
2017-Nov-14 11:28N 43°34' W 005°42'2 5.3
2017-Nov-14 11:00N 43°35' W 005°39'5 9.7
2017-Nov-14 10:30N 43°35' W 005°32'611.3
2017-Nov-14 10:01N 43°35' W 005°24'712.4
2017-Nov-14 09:29N 43°35' W 005°15'4412.0
2017-Nov-14 05:49N 43°35' W 004°15'411.8
2017-Nov-14 05:30N 43°35' W 004°10'611.4
2017-Nov-14 05:00N 43°34' W 004°02'611.5
2017-Nov-14 04:31N 43°33' W 003°54'611.3
2017-Nov-14 04:00N 43°31' W 003°47'4 7.5
2017-Nov-14 03:30N 43°28' W 003°47'2 3.4
2017-Nov-14 03:00N 43°27' W 003°49'0 0.0
2017-Nov-14 02:24N 43°27' W 003°49'0 0.0
2017-Nov-14 02:00N 43°27' W 003°49'0 0.0
2017-Nov-14 01:28N 43°27' W 003°49'0 0.0
2017-Nov-14 00:56N 43°27' W 003°49'0 0.0
2017-Nov-14 00:28N 43°27' W 003°49'0 0.0
2017-Nov-13 23:46N 43°27' W 003°49'0 0.0
2017-Nov-13 23:28N 43°27' W 003°49'0 0.0
2017-Nov-13 23:00N 43°27' W 003°49'0 0.0
2017-Nov-13 22:30N 43°27' W 003°49'0 0.0
2017-Nov-13 21:58N 43°27' W 003°49'0 0.0
2017-Nov-13 01:59N 43°27' W 003°49'0 0.0
2017-Nov-13 01:29N 43°27' W 003°49'0 0.0
2017-Nov-13 00:59N 43°27' W 003°49'0 0.0
2017-Nov-13 00:30N 43°27' W 003°49'0 0.0
2017-Nov-12 23:56N 43°27' W 003°49'0 0.0
2017-Nov-12 23:28N 43°27' W 003°49'0 0.0
2017-Nov-12 22:58N 43°27' W 003°49'0 0.0
2017-Nov-12 22:28N 43°27' W 003°49'0 0.0
2017-Nov-12 21:58N 43°27' W 003°49'0 0.0
2017-Nov-12 21:25N 43°27' W 003°49'0 0.0
2017-Nov-12 20:55N 43°27' W 003°49'0 0.0
2017-Nov-12 20:30N 43°27' W 003°49'0 0.0
2017-Nov-12 19:57N 43°27' W 003°49'0 0.0
2017-Nov-12 19:28N 43°27' W 003°49'0 0.0
2017-Nov-12 18:55N 43°27' W 003°49'0 0.0
2017-Nov-12 18:28N 43°27' W 003°49'0 0.0
2017-Nov-12 17:58N 43°27' W 003°49'0 0.0
2017-Nov-12 17:30N 43°27' W 003°49'2 4.7
2017-Nov-12 17:00N 43°28' W 003°46'3 6.1
2017-Nov-12 16:30N 43°31' W 003°48'611.8
2017-Nov-12 16:00N 43°33' W 003°55'612.3
2017-Nov-12 15:30N 43°34' W 004°03'612.5
2017-Nov-12 15:00N 43°35' W 004°12'4212.7
2017-Nov-12 11:41N 43°35' W 005°10'212.8
2017-Nov-12 11:30N 43°35' W 005°13'612.8
2017-Nov-12 11:00N 43°35' W 005°22'612.6
2017-Nov-12 10:30N 43°35' W 005°31'612.5
2017-Nov-12 10:00N 43°34' W 005°39'2 1.8
2017-Nov-12 08:52N 43°34' W 005°42'0 0.0
2017-Nov-12 08:28N 43°34' W 005°42'0 0.0
2017-Nov-12 07:52N 43°34' W 005°42'0 0.0
2017-Nov-12 07:28N 43°34' W 005°42'0 0.0
2017-Nov-12 06:58N 43°34' W 005°42'0 0.0
2017-Nov-12 06:28N 43°34' W 005°42'0 0.0
2017-Nov-12 05:58N 43°34' W 005°42'0 0.0
2017-Nov-12 05:25N 43°34' W 005°42'0 0.0
2017-Nov-12 04:31N 43°34' W 005°42'0 0.1
2017-Nov-12 04:25N 43°34' W 005°42'0 0.0
2017-Nov-12 03:55N 43°34' W 005°42'0 0.0
2017-Nov-12 03:01N 43°34' W 005°42'0 0.0
2017-Nov-12 02:55N 43°34' W 005°42'0 0.0
2017-Nov-12 02:25N 43°34' W 005°42'0 0.0
2017-Nov-12 01:55N 43°34' W 005°42'0 0.0
2017-Nov-12 01:19N 43°34' W 005°42'0 0.0
2017-Nov-11 20:06N 43°34' W 005°42'0 0.0
2017-Nov-11 18:06N 43°34' W 005°42'0 0.0
2017-Nov-11 16:24N 43°34' W 005°42'0 0.0
2017-Nov-11 15:18N 43°34' W 005°42'0 0.0
2017-Nov-11 15:00N 43°34' W 005°42'0 0.0
2017-Nov-11 14:28N 43°34' W 005°42'0 0.0
2017-Nov-11 13:56N 43°34' W 005°42'0 0.0
2017-Nov-11 13:26N 43°34' W 005°42'0 0.0
2017-Nov-11 12:38N 43°34' W 005°42'0 0.0
2017-Nov-11 12:08N 43°34' W 005°42'0 0.0
2017-Nov-11 11:50N 43°34' W 005°42'0 0.0
2017-Nov-11 11:26N 43°34' W 005°42'0 0.0
2017-Nov-11 10:56N 43°34' W 005°42'0 0.0
2017-Nov-11 10:26N 43°34' W 005°42'0 0.0
2017-Nov-11 09:55N 43°34' W 005°42'0 0.0
2017-Nov-11 09:25N 43°34' W 005°42'0 0.0
2017-Nov-11 08:55N 43°34' W 005°42'0 0.0
2017-Nov-11 08:30N 43°34' W 005°42'0 0.0
2017-Nov-11 08:00N 43°34' W 005°42'0 0.0
2017-Nov-11 07:30N 43°34' W 005°42'0 0.0
2017-Nov-11 06:58N 43°34' W 005°42'0 0.0
2017-Nov-11 06:22N 43°34' W 005°42'0 0.0
2017-Nov-11 05:58N 43°34' W 005°42'0 0.0
2017-Nov-11 05:26N 43°34' W 005°42'1 2.6
2017-Nov-11 05:00N 43°34' W 005°40'611.1
2017-Nov-11 04:30N 43°40' W 005°41'611.0
2017-Nov-11 03:59N 43°45' W 005°41'610.6
2017-Nov-11 03:26N 43°51' W 005°42'26813.2
2017-Nov-10 07:08N 48°19' W 005°55'2912.7
2017-Nov-10 04:52N 48°47' W 005°52'6513.0
2017-Nov-09 23:54N 49°22' W 004°29'1012.5
2017-Nov-09 23:05N 49°27' W 004°15'2012.2
2017-Nov-09 21:28N 49°37' W 003°49'612.2
2017-Nov-09 20:59N 49°40' W 003°41'1112.6
2017-Nov-09 20:08N 49°46' W 003°28'213.0
2017-Nov-09 20:00N 49°47' W 003°25'713.2
2017-Nov-09 19:30N 49°51' W 003°17'713.9
2017-Nov-09 19:00N 49°54' W 003°07'714.5
2017-Nov-09 18:30N 49°57' W 002°57'915.4
2017-Nov-09 17:57N 50°01' W 002°45'715.9
2017-Nov-09 17:30N 50°04' W 002°35'1616.3
2017-Nov-09 16:31N 50°09' W 002°11'316.0
2017-Nov-09 16:19N 50°09' W 002°06'715.7
2017-Nov-09 15:51N 50°11' W 001°55'515.1
2017-Nov-09 15:30N 50°13' W 001°47'714.6
2017-Nov-09 15:00N 50°14' W 001°36'713.8
2017-Nov-09 14:30N 50°16' W 001°26'  
Track history (hours):
 
Tides and Currents Weather Stations Pressure Air Temp Water Temp Dewpoint Dewpoint Depression Visibility Wind Speed Wind Dir Waves Ship Positions

Encofrador

Last reported at 2017-Nov-19 12:32 UTC. Time now 2017-Nov-19 13:53 UTC.
Position N 43°42' W 005°60'.

Length 107 m; draft 6.9 m.

Type: Cargo ship. MMSI: 224655000.

Date/timePositionNaut miles runAvg speedWind from/ knotsBaromVisibWave heightAir tempDewpointWater temp
2017-Nov-19 12:32N 43°42' W 005°60'512.4
2017-Nov-19 12:06N 43°42' W 005°52'212.3
2017-Nov-19 11:55N 43°42' W 005°49'512.5
2017-Nov-19 11:30N 43°38' W 005°44'5 9.8
2017-Nov-19 11:00N 43°34' W 005°41'1 1.0
2017-Nov-19 10:24N 43°34' W 005°42'0 0.0
2017-Nov-19 09:40N 43°34' W 005°42'0 0.0
2017-Nov-19 09:28N 43°34' W 005°42'0 0.0
2017-Nov-19 08:52N 43°34' W 005°42'0 0.0
2017-Nov-19 05:35N 43°34' W 005°42'0 0.0
2017-Nov-19 05:23N 43°34' W 005°42'0 0.0
2017-Nov-18 23:25N 43°34' W 005°42'0 0.0
2017-Nov-18 21:55N 43°34' W 005°42'0 0.0
2017-Nov-18 16:55N 43°34' W 005°42'1 2.8
2017-Nov-18 16:30N 43°34' W 005°40'612.0
2017-Nov-18 16:00N 43°39' W 005°45'612.7
2017-Nov-18 15:30N 43°42' W 005°53'713.5
2017-Nov-18 14:58N 43°42' W 006°03'5013.4
2017-Nov-18 11:11N 43°47' W 007°13'313.1
2017-Nov-18 11:00N 43°47' W 007°16'713.4
2017-Nov-18 10:30N 43°47' W 007°25'713.2
2017-Nov-18 10:00N 43°48' W 007°34'1013.0
2017-Nov-18 09:16N 43°48' W 007°48'313.2
2017-Nov-18 09:00N 43°48' W 007°52'  
2017-Nov-15 17:58N 43°49' W 007°53'812.8
2017-Nov-15 17:20N 43°49' W 007°42'413.1
2017-Nov-15 17:00N 43°49' W 007°36'612.7
2017-Nov-15 16:30N 43°48' W 007°27'6212.8
2017-Nov-15 11:42N 43°42' W 006°02'713.7
2017-Nov-15 11:11N 43°42' W 005°52'313.0
2017-Nov-15 10:56N 43°41' W 005°48'612.9
2017-Nov-15 10:30N 43°38' W 005°42'4 7.3
2017-Nov-15 10:00N 43°34' W 005°42'0 0.2
2017-Nov-15 09:04N 43°34' W 005°42'0 0.0
2017-Nov-15 08:58N 43°34' W 005°42'0 0.0
2017-Nov-15 08:10N 43°34' W 005°42'0 0.0
2017-Nov-15 07:08N 43°34' W 005°42'0 0.0
2017-Nov-15 06:39N 43°34' W 005°42'0 0.0
2017-Nov-15 06:23N 43°34' W 005°42'0 0.0
2017-Nov-15 05:53N 43°34' W 005°42'0 0.0
2017-Nov-15 05:23N 43°34' W 005°42'0 0.0
2017-Nov-15 04:47N 43°34' W 005°42'0 0.0
2017-Nov-15 04:29N 43°34' W 005°42'0 0.0
2017-Nov-15 03:55N 43°34' W 005°42'0 0.0
2017-Nov-15 03:25N 43°34' W 005°42'0 0.0
2017-Nov-15 02:55N 43°34' W 005°42'0 0.0
2017-Nov-15 02:25N 43°34' W 005°42'0 0.0
2017-Nov-15 01:55N 43°34' W 005°42'0 0.0
2017-Nov-15 01:25N 43°34' W 005°42'0 0.0
2017-Nov-14 18:26N 43°34' W 005°42'0 0.0
2017-Nov-14 17:50N 43°34' W 005°42'0 0.0
2017-Nov-14 17:20N 43°34' W 005°42'0 0.0
2017-Nov-14 16:55N 43°34' W 005°42'0 0.0
2017-Nov-14 16:25N 43°34' W 005°42'0 0.0
2017-Nov-14 15:43N 43°34' W 005°42'0 0.0
2017-Nov-14 14:23N 43°34' W 005°42'0 0.0
2017-Nov-14 13:59N 43°34' W 005°42'0 0.0
2017-Nov-14 13:27N 43°34' W 005°42'0 0.0
2017-Nov-14 12:51N 43°34' W 005°42'0 0.0
2017-Nov-14 12:27N 43°34' W 005°42'0 0.0
2017-Nov-14 11:39N 43°34' W 005°42'0 0.3
2017-Nov-14 11:28N 43°34' W 005°42'2 5.3
2017-Nov-14 11:00N 43°35' W 005°39'5 9.7
2017-Nov-14 10:30N 43°35' W 005°32'611.3
2017-Nov-14 10:01N 43°35' W 005°24'712.4
2017-Nov-14 09:29N 43°35' W 005°15'4412.0
2017-Nov-14 05:49N 43°35' W 004°15'411.8
2017-Nov-14 05:30N 43°35' W 004°10'611.4
2017-Nov-14 05:00N 43°34' W 004°02'611.5
2017-Nov-14 04:31N 43°33' W 003°54'611.3
2017-Nov-14 04:00N 43°31' W 003°47'4 7.5
2017-Nov-14 03:30N 43°28' W 003°47'2 3.4
2017-Nov-14 03:00N 43°27' W 003°49'0 0.0
2017-Nov-14 02:24N 43°27' W 003°49'0 0.0
2017-Nov-14 02:00N 43°27' W 003°49'0 0.0
2017-Nov-14 01:28N 43°27' W 003°49'0 0.0
2017-Nov-14 00:56N 43°27' W 003°49'0 0.0
2017-Nov-14 00:28N 43°27' W 003°49'0 0.0
2017-Nov-13 23:46N 43°27' W 003°49'0 0.0
2017-Nov-13 23:28N 43°27' W 003°49'0 0.0
2017-Nov-13 23:00N 43°27' W 003°49'0 0.0
2017-Nov-13 22:30N 43°27' W 003°49'0 0.0
2017-Nov-13 21:58N 43°27' W 003°49'0 0.0
2017-Nov-13 01:59N 43°27' W 003°49'0 0.0
2017-Nov-13 01:29N 43°27' W 003°49'0 0.0
2017-Nov-13 00:59N 43°27' W 003°49'0 0.0
2017-Nov-13 00:30N 43°27' W 003°49'0 0.0
2017-Nov-12 23:56N 43°27' W 003°49'0 0.0
2017-Nov-12 23:28N 43°27' W 003°49'0 0.0
2017-Nov-12 22:58N 43°27' W 003°49'0 0.0
2017-Nov-12 22:28N 43°27' W 003°49'0 0.0
2017-Nov-12 21:58N 43°27' W 003°49'0 0.0
2017-Nov-12 21:25N 43°27' W 003°49'0 0.0
2017-Nov-12 20:55N 43°27' W 003°49'0 0.0
2017-Nov-12 20:30N 43°27' W 003°49'0 0.0
2017-Nov-12 19:57N 43°27' W 003°49'0 0.0
2017-Nov-12 19:28N 43°27' W 003°49'0 0.0
2017-Nov-12 18:55N 43°27' W 003°49'0 0.0
2017-Nov-12 18:28N 43°27' W 003°49'0 0.0
2017-Nov-12 17:58N 43°27' W 003°49'0 0.0
2017-Nov-12 17:30N 43°27' W 003°49'2 4.7
2017-Nov-12 17:00N 43°28' W 003°46'3 6.1
2017-Nov-12 16:30N 43°31' W 003°48'611.8
2017-Nov-12 16:00N 43°33' W 003°55'612.3
2017-Nov-12 15:30N 43°34' W 004°03'612.5
2017-Nov-12 15:00N 43°35' W 004°12'4212.7
2017-Nov-12 11:41N 43°35' W 005°10'212.8
2017-Nov-12 11:30N 43°35' W 005°13'612.8
2017-Nov-12 11:00N 43°35' W 005°22'612.6
2017-Nov-12 10:30N 43°35' W 005°31'612.5
2017-Nov-12 10:00N 43°34' W 005°39'2 1.8
2017-Nov-12 08:52N 43°34' W 005°42'0 0.0
2017-Nov-12 08:28N 43°34' W 005°42'0 0.0
2017-Nov-12 07:52N 43°34' W 005°42'0 0.0
2017-Nov-12 07:28N 43°34' W 005°42'0 0.0
2017-Nov-12 06:58N 43°34' W 005°42'0 0.0
2017-Nov-12 06:28N 43°34' W 005°42'0 0.0
2017-Nov-12 05:58N 43°34' W 005°42'0 0.0
2017-Nov-12 05:25N 43°34' W 005°42'0 0.0
2017-Nov-12 04:31N 43°34' W 005°42'0 0.1
2017-Nov-12 04:25N 43°34' W 005°42'0 0.0
2017-Nov-12 03:55N 43°34' W 005°42'0 0.0
2017-Nov-12 03:01N 43°34' W 005°42'0 0.0
2017-Nov-12 02:55N 43°34' W 005°42'0 0.0
2017-Nov-12 02:25N 43°34' W 005°42'0 0.0
2017-Nov-12 01:55N 43°34' W 005°42'0 0.0
2017-Nov-12 01:19N 43°34' W 005°42'0 0.0
2017-Nov-11 20:06N 43°34' W 005°42'0 0.0
2017-Nov-11 18:06N 43°34' W 005°42'0 0.0
2017-Nov-11 16:24N 43°34' W 005°42'0 0.0
2017-Nov-11 15:18N 43°34' W 005°42'0 0.0
2017-Nov-11 15:00N 43°34' W 005°42'0 0.0
2017-Nov-11 14:28N 43°34' W 005°42'0 0.0
2017-Nov-11 13:56N 43°34' W 005°42'0 0.0
2017-Nov-11 13:26N 43°34' W 005°42'0 0.0
2017-Nov-11 12:38N 43°34' W 005°42'0 0.0
2017-Nov-11 12:08N 43°34' W 005°42'0 0.0
2017-Nov-11 11:50N 43°34' W 005°42'0 0.0
2017-Nov-11 11:26N 43°34' W 005°42'0 0.0
2017-Nov-11 10:56N 43°34' W 005°42'0 0.0
2017-Nov-11 10:26N 43°34' W 005°42'0 0.0
2017-Nov-11 09:55N 43°34' W 005°42'0 0.0
2017-Nov-11 09:25N 43°34' W 005°42'0 0.0
2017-Nov-11 08:55N 43°34' W 005°42'0 0.0
2017-Nov-11 08:30N 43°34' W 005°42'0 0.0
2017-Nov-11 08:00N 43°34' W 005°42'0 0.0
2017-Nov-11 07:30N 43°34' W 005°42'0 0.0
2017-Nov-11 06:58N 43°34' W 005°42'0 0.0
2017-Nov-11 06:22N 43°34' W 005°42'0 0.0
2017-Nov-11 05:58N 43°34' W 005°42'0 0.0
2017-Nov-11 05:26N 43°34' W 005°42'1 2.6
2017-Nov-11 05:00N 43°34' W 005°40'611.1
2017-Nov-11 04:30N 43°40' W 005°41'611.0
2017-Nov-11 03:59N 43°45' W 005°41'610.6
2017-Nov-11 03:26N 43°51' W 005°42'26813.2
2017-Nov-10 07:08N 48°19' W 005°55'2912.7
2017-Nov-10 04:52N 48°47' W 005°52'6513.0
2017-Nov-09 23:54N 49°22' W 004°29'1012.5
2017-Nov-09 23:05N 49°27' W 004°15'2012.2
2017-Nov-09 21:28N 49°37' W 003°49'612.2
2017-Nov-09 20:59N 49°40' W 003°41'1112.6
2017-Nov-09 20:08N 49°46' W 003°28'213.0
2017-Nov-09 20:00N 49°47' W 003°25'713.2
2017-Nov-09 19:30N 49°51' W 003°17'713.9
2017-Nov-09 19:00N 49°54' W 003°07'714.5
2017-Nov-09 18:30N 49°57' W 002°57'915.4
2017-Nov-09 17:57N 50°01' W 002°45'715.9
2017-Nov-09 17:30N 50°04' W 002°35'1616.3
2017-Nov-09 16:31N 50°09' W 002°11'316.0
2017-Nov-09 16:19N 50°09' W 002°06'715.7
2017-Nov-09 15:51N 50°11' W 001°55'515.1
2017-Nov-09 15:30N 50°13' W 001°47'714.6
2017-Nov-09 15:00N 50°14' W 001°36'713.8
2017-Nov-09 14:30N 50°16' W 001°26'  

Dump ship's entire track history